Time;durP1;ratioP1;P1;durP2;ratioP2;P2;SDS_P1;SDS_P2;PMS_P1;PMS_P2;Temp;Humidity;BMP_temperature;BMP_pressure;BME280_temperature;BME280_humidity;BME280_pressure;Samples;Min_cycle;Max_cycle;Signal;HPM_P1;HPM_P2
2022/09/07 00:00:51;;;;;;;20.90;13.32;;;18.70;99.90;;;;;;5073178;28;20474;-67
2022/09/07 00:03:17;;;;;;;22.45;13.82;;;18.70;99.90;;;;;;5071851;28;20086;-67
2022/09/07 00:05:44;;;;;;;20.00;13.60;;;18.70;99.90;;;;;;5071573;28;20021;-67
2022/09/07 00:08:11;;;;;;;21.83;14.38;;;18.70;99.90;;;;;;5073070;28;20055;-67
2022/09/07 00:10:37;;;;;;;18.90;13.82;;;18.70;99.90;;;;;;5086490;28;20013;-68
2022/09/07 00:13:05;;;;;;;21.23;14.13;;;18.70;99.90;;;;;;5072843;28;20103;-67
2022/09/07 00:15:31;;;;;;;20.42;13.20;;;18.80;99.90;;;;;;5072905;28;20029;-68
2022/09/07 00:17:57;;;;;;;20.45;13.02;;;18.70;99.90;;;;;;5072328;28;20111;-67
2022/09/07 00:20:22;;;;;;;24.95;13.68;;;18.70;99.90;;;;;;5072820;28;20107;-68
2022/09/07 00:22:50;;;;;;;19.35;13.90;;;18.70;99.90;;;;;;5072722;28;20046;-66
2022/09/07 00:25:16;;;;;;;18.92;12.35;;;18.70;99.90;;;;;;5053618;28;20044;-67
2022/09/07 00:27:42;;;;;;;19.85;12.65;;;18.70;99.90;;;;;;5076625;28;20026;-67
2022/09/07 00:30:09;;;;;;;16.38;11.23;;;18.70;99.90;;;;;;5076910;28;20074;-67
2022/09/07 00:32:34;;;;;;;22.90;12.13;;;18.80;99.90;;;;;;5072486;28;20422;-67
2022/09/07 00:35:00;;;;;;;19.80;12.73;;;18.70;99.90;;;;;;5072904;28;20044;-68
2022/09/07 00:37:26;;;;;;;17.98;12.30;;;18.80;99.90;;;;;;5072524;28;20100;-66
2022/09/07 00:39:52;;;;;;;18.27;10.98;;;18.80;99.90;;;;;;5072521;28;20558;-66
2022/09/07 00:42:20;;;;;;;17.15;10.90;;;18.80;99.90;;;;;;5072637;28;20021;-66
2022/09/07 00:44:59;;;;;;;17.60;11.82;;;18.80;99.90;;;;;;5072406;28;20081;-66
2022/09/07 00:47:51;;;;;;;16.95;10.98;;;18.80;99.90;;;;;;5072323;28;20063;-68
2022/09/07 00:50:30;;;;;;;16.10;10.75;;;18.80;99.90;;;;;;5072555;28;20028;-66
2022/09/07 00:53:11;;;;;;;16.27;10.50;;;18.70;99.90;;;;;;5072180;28;20041;-64
2022/09/07 00:55:40;;;;;;;19.20;11.55;;;18.60;99.90;;;;;;5072531;28;20025;-67
2022/09/07 00:58:07;;;;;;;18.25;10.98;;;18.60;99.90;;;;;;5072008;28;20360;-67
2022/09/07 01:00:33;;;;;;;16.70;10.80;;;18.60;99.90;;;;;;5072344;28;20131;-67
2022/09/07 01:03:00;;;;;;;19.92;11.63;;;18.60;99.90;;;;;;5071695;28;20055;-66
2022/09/07 01:05:48;;;;;;;19.38;13.20;;;18.60;99.90;;;;;;5072417;28;20119;-68
2022/09/07 01:08:15;;;;;;;21.80;14.10;;;18.40;99.90;;;;;;5072434;28;20020;-67
2022/09/07 01:10:40;;;;;;;23.75;13.90;;;18.20;99.90;;;;;;5085374;28;20105;-64
2022/09/07 01:13:07;;;;;;;20.75;13.38;;;18.20;99.90;;;;;;5072166;28;20071;-66
2022/09/07 01:15:42;;;;;;;22.20;13.55;;;18.20;99.90;;;;;;5072452;28;20104;-68
2022/09/07 01:18:20;;;;;;;23.38;13.52;;;18.20;99.90;;;;;;5071044;28;20075;-65
2022/09/07 01:20:52;;;;;;;23.02;16.35;;;18.10;99.90;;;;;;5072025;28;20502;-64
2022/09/07 01:23:36;;;;;;;25.85;15.93;;;18.20;99.90;;;;;;5071651;28;20421;-66
2022/09/07 01:26:21;;;;;;;27.20;16.75;;;18.20;99.90;;;;;;5072301;28;20020;-65
2022/09/07 01:28:52;;;;;;;31.17;16.15;;;18.10;99.90;;;;;;5071774;28;20055;-67
2022/09/07 01:31:24;;;;;;;26.15;15.65;;;18.20;99.90;;;;;;5071867;28;20035;-65
2022/09/07 01:34:02;;;;;;;24.17;15.87;;;18.20;99.90;;;;;;5067152;28;20109;-67
2022/09/07 01:37:13;;;;;;;24.27;16.05;;;18.10;99.90;;;;;;5070618;28;20269;-67
2022/09/07 01:39:42;;;;;;;23.20;14.60;;;18.00;99.90;;;;;;5070471;28;20017;-67
2022/09/07 01:42:14;;;;;;;22.52;13.50;;;17.90;99.90;;;;;;5074706;28;20544;-67
2022/09/07 01:44:55;;;;;;;21.23;14.02;;;17.90;99.90;;;;;;5074343;28;20135;-67
2022/09/07 01:47:27;;;;;;;19.40;12.57;;;17.90;99.90;;;;;;5071529;28;20053;-66
2022/09/07 01:50:06;;;;;;;23.67;12.75;;;17.90;99.90;;;;;;5074420;28;20413;-68
2022/09/07 01:52:50;;;;;;;21.92;13.98;;;17.90;99.90;;;;;;5069459;28;20017;-66
2022/09/07 01:55:20;;;;;;;20.58;13.55;;;17.80;99.90;;;;;;5054907;28;20021;-67
2022/09/07 01:57:53;;;;;;;18.27;12.52;;;17.60;99.90;;;;;;5071946;28;20024;-67
2022/09/07 02:00:19;;;;;;;23.70;13.18;;;17.60;99.90;;;;;;5075602;28;20074;-68
2022/09/07 02:03:04;;;;;;;22.95;13.90;;;17.60;99.90;;;;;;5085501;28;20051;-67
2022/09/07 02:05:42;;;;;;;20.48;11.80;;;17.70;99.90;;;;;;5076882;28;20043;-68
2022/09/07 02:08:30;;;;;;;19.95;11.75;;;17.70;99.90;;;;;;5075509;28;20135;-68
2022/09/07 02:11:07;;;;;;;17.45;11.85;;;17.60;99.90;;;;;;5068507;28;20039;-68
2022/09/07 02:13:45;;;;;;;18.83;12.25;;;17.40;99.90;;;;;;5075400;28;20028;-68
2022/09/07 02:16:21;;;;;;;16.67;11.75;;;17.40;99.90;;;;;;5075214;28;20107;-67
2022/09/07 02:18:52;;;;;;;20.42;10.63;;;17.30;99.90;;;;;;5075254;28;20020;-67
2022/09/07 02:21:23;;;;;;;24.02;12.57;;;17.40;99.90;;;;;;5075150;28;20526;-68
2022/09/07 02:24:02;;;;;;;19.23;12.00;;;17.40;99.90;;;;;;5075108;28;20029;-68
2022/09/07 02:26:29;;;;;;;20.15;11.77;;;17.30;99.90;;;;;;5075208;28;20111;-67
2022/09/07 02:28:56;;;;;;;17.33;12.35;;;17.10;99.90;;;;;;5079239;28;20055;-67
2022/09/07 02:31:22;;;;;;;19.13;11.82;;;17.20;99.90;;;;;;5092302;28;20042;-67
2022/09/07 02:33:48;;;;;;;19.70;12.02;;;17.10;99.90;;;;;;5075122;28;20027;-67
2022/09/07 02:36:18;;;;;;;18.63;12.05;;;17.10;99.90;;;;;;5081513;28;20369;-68
2022/09/07 02:38:44;;;;;;;18.77;10.98;;;17.10;99.90;;;;;;5087120;28;20074;-68
2022/09/07 02:41:30;;;;;;;19.70;11.95;;;17.10;99.90;;;;;;5074780;28;20028;-67
2022/09/07 02:43:56;;;;;;;28.10;12.43;;;17.10;99.90;;;;;;5077589;28;20036;-68
2022/09/07 02:46:45;;;;;;;17.25;11.40;;;17.10;99.90;;;;;;5082979;28;20024;-67
2022/09/07 02:49:45;;;;;;;18.40;11.70;;;17.00;99.90;;;;;;5074868;28;20021;-67
2022/09/07 02:52:30;;;;;;;20.40;11.45;;;16.80;99.90;;;;;;5074130;28;20103;-66
2022/09/07 02:55:14;;;;;;;22.75;11.80;;;17.00;99.90;;;;;;5074603;28;20032;-67
2022/09/07 02:57:43;;;;;;;19.73;12.40;;;16.90;99.90;;;;;;5074627;28;20103;-68
2022/09/07 03:00:16;;;;;;;18.85;12.13;;;16.70;99.90;;;;;;5074564;28;20510;-68
2022/09/07 03:02:56;;;;;;;17.30;11.98;;;16.70;99.90;;;;;;5074140;28;20044;-66
2022/09/07 03:05:48;;;;;;;18.40;11.93;;;16.80;99.90;;;;;;5074327;28;20044;-68
2022/09/07 03:08:28;;;;;;;18.77;10.52;;;16.80;99.90;;;;;;5075174;28;20086;-67
2022/09/07 03:10:56;;;;;;;19.27;12.20;;;16.90;99.90;;;;;;5085306;28;20032;-68
2022/09/07 03:13:27;;;;;;;18.45;11.57;;;16.90;99.90;;;;;;5074236;28;20075;-66
2022/09/07 03:15:54;;;;;;;21.37;12.80;;;16.90;99.90;;;;;;5080373;28;20032;-67
2022/09/07 03:18:21;;;;;;;18.15;11.68;;;17.00;99.90;;;;;;5081958;28;20257;-68
2022/09/07 03:20:47;;;;;;;17.20;11.07;;;17.00;99.90;;;;;;5074090;28;20047;-68
2022/09/07 03:23:13;;;;;;;24.85;11.45;;;17.00;99.90;;;;;;5078680;28;20478;-67
2022/09/07 03:25:38;;;;;;;20.08;12.45;;;17.00;99.90;;;;;;5077256;28;20032;-68
2022/09/07 03:28:05;;;;;;;20.58;12.18;;;17.00;99.90;;;;;;5073787;28;20016;-68
2022/09/07 03:30:31;;;;;;;19.75;11.45;;;17.00;99.90;;;;;;5073530;28;20059;-68
2022/09/07 03:32:57;;;;;;;18.95;11.05;;;16.90;99.90;;;;;;5073431;28;20385;-68
2022/09/07 03:35:23;;;;;;;17.65;11.20;;;16.90;99.90;;;;;;5073786;28;20108;-68
2022/09/07 03:37:48;;;;;;;19.02;11.90;;;16.90;99.90;;;;;;5073355;28;20020;-68
2022/09/07 03:40:15;;;;;;;16.42;10.70;;;16.90;99.90;;;;;;5073448;28;20060;-68
2022/09/07 03:42:41;;;;;;;18.25;10.65;;;17.00;99.90;;;;;;5073251;28;20024;-67
2022/09/07 03:45:09;;;;;;;16.83;10.60;;;17.00;99.90;;;;;;5073371;28;20040;-66
2022/09/07 03:47:36;;;;;;;23.48;11.90;;;16.90;99.90;;;;;;5073597;28;20028;-68
2022/09/07 03:50:02;;;;;;;18.52;12.57;;;16.90;99.90;;;;;;5073422;28;20024;-67
2022/09/07 03:52:28;;;;;;;17.88;11.13;;;16.80;99.90;;;;;;5073056;28;20016;-67
2022/09/07 03:54:54;;;;;;;19.55;12.30;;;16.80;99.90;;;;;;5070264;28;20036;-67
2022/09/07 03:57:21;;;;;;;18.95;11.70;;;16.70;99.90;;;;;;5066471;28;20511;-67
2022/09/07 03:59:48;;;;;;;23.13;12.95;;;16.70;99.90;;;;;;5070758;28;20032;-68
2022/09/07 04:02:14;;;;;;;23.17;13.70;;;16.60;99.90;;;;;;5069051;28;20021;-69
2022/09/07 04:04:47;;;;;;;18.75;13.13;;;16.50;99.90;;;;;;5064528;28;20052;-66
2022/09/07 04:07:13;;;;;;;19.88;13.10;;;16.60;99.90;;;;;;5071875;28;20032;-66
2022/09/07 04:09:39;;;;;;;22.05;12.88;;;16.60;99.90;;;;;;5071589;28;20028;-67
2022/09/07 04:12:05;;;;;;;18.70;12.77;;;16.60;99.90;;;;;;5089273;28;20077;-65
2022/09/07 04:14:31;;;;;;;19.42;13.18;;;16.40;99.90;;;;;;5090602;28;20024;-69
2022/09/07 04:16:57;;;;;;;20.73;14.65;;;16.40;99.90;;;;;;5082426;28;20066;-65
2022/09/07 04:19:23;;;;;;;22.40;12.73;;;16.60;99.90;;;;;;5092232;28;20020;-68
2022/09/07 04:21:49;;;;;;;23.00;12.70;;;16.80;99.90;;;;;;5072564;28;20090;-68
2022/09/07 04:24:16;;;;;;;19.77;12.35;;;17.00;99.90;;;;;;5054105;28;20049;-68
2022/09/07 04:26:43;;;;;;;16.75;11.10;;;17.10;99.90;;;;;;5067656;28;20031;-67
2022/09/07 04:29:10;;;;;;;23.73;13.45;;;17.40;99.90;;;;;;5070797;28;20020;-68
2022/09/07 04:31:36;;;;;;;19.02;12.00;;;17.80;99.90;;;;;;5071829;28;20032;-66
2022/09/07 04:34:04;;;;;;;76.88;68.72;;;18.20;99.90;;;;;;5072267;28;20132;-69
2022/09/07 04:36:30;;;;;;;64.32;54.55;;;18.50;99.90;;;;;;5071860;28;20021;-68
2022/09/07 04:39:01;;;;;;;43.42;33.00;;;18.90;99.90;;;;;;5068625;28;20035;-69
2022/09/07 04:41:29;;;;;;;25.67;19.92;;;19.10;99.90;;;;;;5071247;28;20363;-68
2022/09/07 04:43:57;;;;;;;23.50;15.20;;;19.40;99.90;;;;;;5071580;28;20086;-67
2022/09/07 04:46:26;;;;;;;19.00;13.23;;;19.10;99.90;;;;;;5071981;28;20500;-68
2022/09/07 04:48:57;;;;;;;19.17;12.50;;;18.30;99.90;;;;;;5071985;28;20402;-69
2022/09/07 04:51:24;;;;;;;15.57;11.77;;;18.60;99.90;;;;;;5071747;28;20028;-68
2022/09/07 04:53:52;;;;;;;18.45;12.13;;;19.20;99.90;;;;;;5065736;28;20027;-63
2022/09/07 04:56:18;;;;;;;17.58;10.73;;;20.20;99.90;;;;;;5067749;28;20024;-68
2022/09/07 04:58:45;;;;;;;16.58;11.07;;;20.80;99.90;;;;;;5071036;28;20025;-68
2022/09/07 05:01:14;;;;;;;15.13;10.25;;;21.00;99.90;;;;;;5071988;28;20024;-69
2022/09/07 05:03:40;;;;;;;16.20;9.93;;;21.80;99.90;;;;;;5071562;28;20086;-65
2022/09/07 05:06:06;;;;;;;16.48;10.88;;;22.10;99.90;;;;;;5071658;28;20386;-69
2022/09/07 05:08:37;;;;;;;16.02;10.57;;;22.20;99.90;;;;;;5084395;28;20415;-69
2022/09/07 05:11:03;;;;;;;16.88;11.13;;;22.60;99.90;;;;;;5082096;28;20120;-64
2022/09/07 05:13:30;;;;;;;16.38;10.68;;;22.70;99.90;;;;;;5072062;28;20062;-69
2022/09/07 05:15:57;;;;;;;18.00;9.75;;;23.20;99.90;;;;;;5071947;28;20040;-68
2022/09/07 05:18:24;;;;;;;15.88;11.15;;;23.10;99.90;;;;;;5071840;28;20031;-68
2022/09/07 05:20:49;;;;;;;15.52;10.10;;;23.30;99.90;;;;;;5072016;28;20048;-68
2022/09/07 05:23:15;;;;;;;15.77;9.48;;;22.10;99.90;;;;;;5071655;28;20028;-69
2022/09/07 05:25:45;;;;;;;16.45;9.77;;;20.60;99.90;;;;;;5071484;28;20036;-67
2022/09/07 05:28:12;;;;;;;15.40;10.40;;;20.60;99.90;;;;;;5071905;28;20037;-67
2022/09/07 05:30:39;;;;;;;16.70;10.55;;;20.50;99.90;;;;;;5075297;28;20039;-68
2022/09/07 05:33:07;;;;;;;18.30;11.35;;;20.50;99.90;;;;;;5082665;28;20536;-68
2022/09/07 05:35:33;;;;;;;18.73;11.73;;;20.30;99.90;;;;;;5072968;28;20024;-68
2022/09/07 05:37:59;;;;;;;18.17;12.75;;;20.10;99.90;;;;;;5084510;28;20029;-69
2022/09/07 05:40:25;;;;;;;17.48;11.40;;;20.10;99.90;;;;;;5071745;28;20158;-68
2022/09/07 05:42:51;;;;;;;17.00;10.38;;;20.30;99.90;;;;;;5071563;28;20024;-67
2022/09/07 05:45:17;;;;;;;21.20;10.40;;;20.10;99.90;;;;;;5071707;28;20078;-68
2022/09/07 05:47:43;;;;;;;19.00;11.00;;;20.40;99.90;;;;;;5071612;28;20035;-69
2022/09/07 05:50:09;;;;;;;16.77;10.68;;;20.60;99.90;;;;;;5071654;28;20072;-68
2022/09/07 05:52:35;;;;;;;15.80;10.98;;;20.80;99.90;;;;;;5071856;28;20091;-66
2022/09/07 05:55:01;;;;;;;17.35;9.93;;;21.00;99.90;;;;;;5071827;28;20080;-69
2022/09/07 05:57:27;;;;;;;18.92;11.23;;;20.80;99.90;;;;;;5071883;28;20021;-68
2022/09/07 05:59:53;;;;;;;18.50;10.35;;;20.90;99.90;;;;;;5071573;28;20467;-68
2022/09/07 06:02:19;;;;;;;24.08;10.70;;;20.60;99.90;;;;;;5075431;28;20545;-68
2022/09/07 06:04:46;;;;;;;27.35;10.65;;;21.00;99.90;;;;;;5081978;28;20037;-67
2022/09/07 06:07:13;;;;;;;15.93;10.57;;;21.20;99.90;;;;;;5071475;28;20028;-67
2022/09/07 06:09:40;;;;;;;17.02;10.63;;;21.20;99.90;;;;;;5084380;28;20028;-68
2022/09/07 06:12:06;;;;;;;25.85;12.02;;;21.30;99.90;;;;;;5073086;28;20421;-67
2022/09/07 06:14:34;;;;;;;18.50;11.55;;;21.40;99.90;;;;;;5069412;28;20123;-69
2022/09/07 06:17:00;;;;;;;22.60;12.82;;;21.00;99.90;;;;;;5070299;28;20092;-69
2022/09/07 06:19:26;;;;;;;21.25;14.02;;;21.10;99.90;;;;;;5071843;28;20090;-69
2022/09/07 06:21:52;;;;;;;22.33;12.73;;;20.90;99.90;;;;;;5073312;28;20025;-69
2022/09/07 06:24:18;;;;;;;18.40;12.68;;;20.70;99.90;;;;;;5070933;28;20040;-63
2022/09/07 06:26:43;;;;;;;19.98;12.60;;;20.80;99.90;;;;;;5071132;28;20027;-68
2022/09/07 06:29:09;;;;;;;20.98;12.93;;;20.90;99.90;;;;;;5072626;28;20020;-67
2022/09/07 06:31:35;;;;;;;23.88;13.18;;;20.70;99.90;;;;;;5073488;28;20031;-69
2022/09/07 06:34:01;;;;;;;20.42;12.05;;;20.70;99.90;;;;;;5076852;28;20032;-68
2022/09/07 06:36:27;;;;;;;26.13;12.25;;;20.60;99.90;;;;;;5085769;28;20021;-66
2022/09/07 06:38:55;;;;;;;18.45;11.18;;;20.80;99.90;;;;;;5074421;28;20031;-69
2022/09/07 06:41:27;;;;;;;24.42;12.65;;;20.80;99.90;;;;;;5075092;28;20028;-68
2022/09/07 06:43:53;;;;;;;;;;;20.90;99.90;;;;;;5074816;28;20071;-68
2022/09/07 06:46:20;;;;;;;29.25;16.60;;;20.90;99.90;;;;;;5073158;28;19951;-67
2022/09/07 06:48:46;;;;;;;28.92;18.80;;;20.70;99.90;;;;;;5079447;28;20056;-68
2022/09/07 06:51:14;;;;;;;29.05;17.58;;;20.50;99.90;;;;;;5074135;28;20501;-68
2022/09/07 06:53:41;;;;;;;25.10;15.57;;;20.90;99.90;;;;;;5074350;28;20029;-68
2022/09/07 06:56:10;;;;;;;21.02;15.30;;;21.30;99.90;;;;;;5076403;28;20028;-68
2022/09/07 06:58:37;;;;;;;22.00;15.15;;;21.10;99.90;;;;;;5084921;28;20033;-69
2022/09/07 07:01:10;;;;;;;21.55;13.13;;;21.50;99.90;;;;;;5070910;28;20024;-68
2022/09/07 07:03:36;;;;;;;24.85;14.73;;;21.90;99.90;;;;;;5087168;28;20040;-68
2022/09/07 07:06:03;;;;;;;17.95;12.88;;;22.20;99.90;;;;;;5078941;28;20094;-68
2022/09/07 07:08:29;;;;;;;18.20;12.50;;;22.50;99.90;;;;;;5080116;28;20019;-68
2022/09/07 07:10:59;;;;;;;19.15;11.23;;;22.60;99.90;;;;;;5084739;28;20024;-69
2022/09/07 07:13:26;;;;;;;16.75;11.15;;;22.80;99.90;;;;;;5073163;28;20074;-70
2022/09/07 07:15:52;;;;;;;18.80;11.73;;;23.00;99.90;;;;;;5073688;28;20017;-69
2022/09/07 07:18:18;;;;;;;18.02;11.40;;;23.20;99.90;;;;;;5085910;28;20029;-69
2022/09/07 07:20:44;;;;;;;16.88;8.57;;;23.20;99.90;;;;;;5073553;28;20031;-69
2022/09/07 07:23:11;;;;;;;15.55;8.55;;;23.40;99.90;;;;;;5073115;28;20398;-68
2022/09/07 07:25:37;;;;;;;12.75;8.60;;;23.40;99.90;;;;;;5073048;28;20077;-69
2022/09/07 07:28:04;;;;;;;17.50;9.73;;;23.50;99.90;;;;;;5073471;28;20020;-69
2022/09/07 07:30:30;;;;;;;15.52;8.35;;;24.00;99.90;;;;;;5073496;28;20025;-69
2022/09/07 07:32:59;;;;;;;13.95;8.82;;;24.20;99.90;;;;;;5073293;28;20031;-69
2022/09/07 07:35:25;;;;;;;12.15;8.23;;;24.30;99.90;;;;;;5087526;28;20035;-68
2022/09/07 07:37:52;;;;;;;16.52;8.48;;;24.20;99.90;;;;;;5079947;28;20036;-69
2022/09/07 07:40:18;;;;;;;17.40;9.05;;;24.30;99.90;;;;;;5073050;28;20029;-70
2022/09/07 07:42:44;;;;;;;17.30;9.10;;;24.20;99.90;;;;;;5087466;28;20386;-69
2022/09/07 07:45:10;;;;;;;17.95;8.05;;;24.20;99.90;;;;;;5073345;28;20036;-69
2022/09/07 07:47:37;;;;;;;19.85;10.05;;;24.00;99.90;;;;;;5075771;28;20089;-69
2022/09/07 07:50:05;;;;;;;17.80;10.48;;;23.90;99.90;;;;;;5084720;28;20477;-68
2022/09/07 07:52:33;;;;;;;18.77;10.85;;;23.80;99.90;;;;;;5072765;28;20040;-68
2022/09/07 07:54:59;;;;;;;16.88;10.98;;;23.70;99.90;;;;;;5070857;28;20031;-69
2022/09/07 07:57:25;;;;;;;15.23;10.35;;;23.60;99.90;;;;;;5085560;28;20020;-70
2022/09/07 07:59:50;;;;;;;16.88;10.95;;;23.80;99.90;;;;;;5054850;28;20036;-68
2022/09/07 08:02:16;;;;;;;19.65;11.93;;;23.80;99.90;;;;;;5090621;28;20031;-68
2022/09/07 08:04:42;;;;;;;19.85;9.95;;;23.80;99.90;;;;;;5075106;28;20044;-69
2022/09/07 08:07:10;;;;;;;19.23;10.15;;;24.00;99.90;;;;;;5072597;28;20037;-69
2022/09/07 08:09:43;;;;;;;16.13;10.38;;;24.20;99.90;;;;;;5084943;28;20059;-69
2022/09/07 08:12:13;;;;;;;15.45;9.35;;;24.30;99.90;;;;;;5073682;28;20074;-68
2022/09/07 08:14:39;;;;;;;13.90;8.55;;;24.50;99.90;;;;;;5073058;28;20409;-69
2022/09/07 08:17:10;;;;;;;13.45;8.20;;;24.50;99.90;;;;;;5072441;28;20021;-70
2022/09/07 08:19:36;;;;;;;13.63;8.68;;;24.50;99.90;;;;;;5072949;28;20371;-69
2022/09/07 08:22:02;;;;;;;13.13;8.27;;;24.60;99.90;;;;;;5072063;28;20021;-69
2022/09/07 08:24:30;;;;;;;21.63;9.05;;;;;;;;;;5072305;28;20447;-69
2022/09/07 08:26:56;;;;;;;15.60;7.97;;;25.00;99.90;;;;;;5072633;28;20490;-70
2022/09/07 08:29:22;;;;;;;14.68;8.93;;;25.20;99.90;;;;;;5072415;28;20039;-68
2022/09/07 08:31:47;;;;;;;16.23;8.88;;;25.00;99.90;;;;;;5072150;28;20437;-69
2022/09/07 08:34:13;;;;;;;16.15;8.45;;;25.30;99.90;;;;;;5072303;28;20079;-69
2022/09/07 08:36:39;;;;;;;16.55;8.05;;;25.40;99.90;;;;;;5072521;28;20017;-69
2022/09/07 08:39:05;;;;;;;17.73;9.68;;;25.40;99.90;;;;;;5072560;28;20043;-69
2022/09/07 08:41:51;;;;;;;19.05;10.35;;;25.50;99.90;;;;;;5072385;28;20374;-68
2022/09/07 08:44:25;;;;;;;22.38;9.10;;;25.50;99.90;;;;;;5072187;28;20382;-70
2022/09/07 08:46:56;;;;;;;13.55;8.63;;;25.70;99.90;;;;;;5072899;28;20032;-69
2022/09/07 08:49:32;;;;;;;;;;;26.00;99.90;;;;;;5072704;28;20025;-69
2022/09/07 08:52:01;;;;;;;15.57;9.57;;;;;;;;;;5072204;28;19908;-70
2022/09/07 08:54:27;;;;;;;23.00;9.80;;;26.10;99.90;;;;;;5071453;28;20356;-69
2022/09/07 08:56:59;;;;;;;13.65;9.43;;;26.20;99.90;;;;;;5082137;28;20417;-70
2022/09/07 08:59:41;;;;;;;15.65;9.43;;;26.10;99.90;;;;;;5071958;28;20112;-69
2022/09/07 09:02:15;;;;;;;16.88;10.35;;;26.10;99.90;;;;;;5084037;28;20393;-69
2022/09/07 09:04:42;;;;;;;21.40;10.13;;;;;;;;;;5074291;28;20040;-65
2022/09/07 09:07:46;;;;;;;16.45;10.82;;;26.40;99.90;;;;;;5071906;28;20020;-70
2022/09/07 09:10:24;;;;;;;17.10;10.65;;;26.40;99.90;;;;;;4988979;28;20038;-69
2022/09/07 09:13:09;;;;;;;17.40;10.30;;;26.40;99.90;;;;;;4990000;28;20034;-69
2022/09/07 09:16:02;;;;;;;17.55;9.63;;;26.40;99.90;;;;;;4989135;28;20023;-68
2022/09/07 09:18:38;;;;;;;16.42;10.15;;;26.40;99.90;;;;;;4986412;28;20038;-69
2022/09/07 09:21:06;;;;;;;17.02;10.68;;;26.40;99.90;;;;;;4986411;28;20046;-67
2022/09/07 09:23:40;;;;;;;14.75;8.88;;;26.60;99.90;;;;;;4987872;28;20170;-69
2022/09/07 09:26:14;;;;;;;16.17;10.07;;;26.70;99.90;;;;;;4984401;28;20034;-68
2022/09/07 09:28:40;;;;;;;15.05;9.85;;;26.70;99.90;;;;;;4988481;28;20041;-68
2022/09/07 09:31:26;;;;;;;16.35;10.70;;;26.70;99.90;;;;;;4988381;28;20026;-69
2022/09/07 09:34:04;;;;;;;16.23;10.57;;;26.80;99.90;;;;;;4985572;28;20050;-64
2022/09/07 09:36:39;;;;;;;13.55;9.52;;;27.10;99.90;;;;;;4986202;28;20045;-69
2022/09/07 09:39:23;;;;;;;18.20;11.18;;;27.00;99.90;;;;;;4988683;28;20038;-67
2022/09/07 09:41:49;;;;;;;15.32;8.98;;;27.20;99.90;;;;;;4990215;28;20038;-69
2022/09/07 09:44:17;;;;;;;13.85;9.18;;;27.30;99.90;;;;;;4973325;28;20030;-69
2022/09/07 09:46:53;;;;;;;16.50;9.23;;;27.30;99.90;;;;;;5030202;28;20067;-69
2022/09/07 09:49:34;;;;;;;17.55;11.00;;;27.20;99.90;;;;;;5068184;28;20028;-68
2022/09/07 09:52:03;;;;;;;13.15;9.68;;;27.10;99.90;;;;;;5071451;28;20024;-69
2022/09/07 09:54:32;;;;;;;17.67;10.63;;;27.10;99.90;;;;;;5071404;28;20012;-69
2022/09/07 09:56:59;;;;;;;14.52;9.40;;;27.10;99.90;;;;;;5071400;28;20390;-69
2022/09/07 09:59:28;;;;;;;14.10;9.73;;;27.40;99.90;;;;;;5071340;28;20370;-68
2022/09/07 10:01:54;;;;;;;13.70;9.85;;;27.50;99.90;;;;;;5072014;28;20031;-65
2022/09/07 10:04:24;;;;;;;15.75;10.48;;;27.60;99.90;;;;;;5089290;28;20059;-69
2022/09/07 10:06:53;;;;;;;15.27;9.93;;;27.50;99.90;;;;;;5075371;28;20462;-69
2022/09/07 10:09:25;;;;;;;15.52;9.52;;;27.50;99.90;;;;;;5084981;28;20103;-69
2022/09/07 10:11:57;;;;;;;13.75;9.98;;;27.50;99.90;;;;;;5078610;28;20037;-68
2022/09/07 10:14:28;;;;;;;14.82;10.32;;;27.70;99.90;;;;;;5075025;28;20066;-68
2022/09/07 10:16:55;;;;;;;14.50;9.53;;;27.80;99.90;;;;;;5074762;28;20028;-68
2022/09/07 10:19:33;;;;;;;15.95;9.52;;;27.80;99.90;;;;;;5075074;28;20028;-68
2022/09/07 10:22:19;;;;;;;14.85;9.27;;;28.00;99.90;;;;;;5075474;28;20028;-69
2022/09/07 10:24:45;;;;;;;15.07;9.27;;;28.10;99.90;;;;;;5075261;28;20401;-69
2022/09/07 10:27:30;;;;;;;13.95;8.32;;;28.20;99.90;;;;;;5074742;28;20032;-69
2022/09/07 10:29:56;;;;;;;13.10;8.93;;;28.10;99.90;;;;;;5075187;28;20107;-69
2022/09/07 10:32:43;;;;;;;13.50;9.13;;;27.90;99.90;;;;;;5074540;28;20027;-69
2022/09/07 10:35:18;;;;;;;14.82;9.13;;;27.80;99.90;;;;;;5074174;28;20119;-69
2022/09/07 10:38:06;;;;;;;12.82;8.77;;;27.70;99.90;;;;;;5074686;28;20107;-68
2022/09/07 10:41:06;;;;;;;14.68;9.43;;;27.60;99.90;;;;;;5074213;28;20020;-69
2022/09/07 10:43:44;;;;;;;15.65;9.18;;;27.70;99.90;;;;;;4992373;28;20485;-68
2022/09/07 10:46:18;;;;;;;17.23;9.18;;;27.70;99.90;;;;;;4992765;28;20433;-68
2022/09/07 10:48:50;;;;;;;15.77;9.38;;;27.90;99.90;;;;;;4992942;28;20046;-69
2022/09/07 10:51:24;;;;;;;14.50;9.20;;;27.90;99.90;;;;;;4992743;28;20030;-68
2022/09/07 10:54:28;;;;;;;14.35;8.55;;;28.10;99.90;;;;;;4992484;28;20393;-67
2022/09/07 10:57:07;;;;;;;14.02;8.73;;;28.20;99.90;;;;;;4992717;28;20088;-69
2022/09/07 10:59:59;;;;;;;15.45;9.57;;;28.00;99.90;;;;;;4992724;28;20469;-69
2022/09/07 11:02:45;;;;;;;13.48;8.48;;;27.90;99.90;;;;;;4992558;28;20125;-69
2022/09/07 11:05:28;;;;;;;13.65;8.63;;;28.00;99.90;;;;;;4992064;28;20062;-69
2022/09/07 11:08:21;;;;;;;13.88;9.07;;;28.30;99.90;;;;;;4992264;28;20038;-69
2022/09/07 11:11:06;;;;;;;15.40;8.35;;;28.40;99.90;;;;;;4980898;28;20473;-69
2022/09/07 11:13:36;;;;;;;12.57;8.10;;;28.30;99.80;;;;;;4991715;28;20536;-68
2022/09/07 11:16:10;;;;;;;12.55;8.23;;;28.10;99.90;;;;;;4992177;28;20034;-68
2022/09/07 11:18:44;;;;;;;22.70;9.88;;;28.20;99.90;;;;;;4992450;28;20030;-69
2022/09/07 11:21:16;;;;;;;14.80;9.57;;;28.30;99.90;;;;;;5055469;28;20064;-70
2022/09/07 11:24:00;;;;;;;15.27;9.77;;;28.20;99.90;;;;;;5073799;28;20082;-69
2022/09/07 11:26:30;;;;;;;22.55;9.07;;;28.40;99.90;;;;;;5073839;28;20029;-68
2022/09/07 11:29:14;;;;;;;17.85;9.30;;;28.50;99.90;;;;;;5073627;28;20066;-69
2022/09/07 11:31:49;;;;;;;19.60;9.18;;;28.60;99.90;;;;;;5073679;28;20049;-69
2022/09/07 11:34:27;;;;;;;13.48;9.45;;;28.50;99.90;;;;;;5074021;28;20060;-69
2022/09/07 11:37:05;;;;;;;13.35;8.82;;;28.60;99.90;;;;;;5073800;28;20489;-69
2022/09/07 11:39:39;;;;;;;15.73;8.70;;;28.60;99.90;;;;;;5073175;28;20143;-69
2022/09/07 11:42:09;;;;;;;16.33;9.68;;;28.70;99.90;;;;;;5073144;28;20024;-69
2022/09/07 11:44:49;;;;;;;18.65;9.10;;;28.70;99.90;;;;;;5073275;28;20064;-69
2022/09/07 11:47:27;;;;;;;12.50;8.02;;;28.70;99.90;;;;;;5073276;28;20039;-70
2022/09/07 11:49:54;;;;;;;13.88;8.88;;;28.70;99.90;;;;;;5060719;28;20029;-70
2022/09/07 11:52:39;;;;;;;11.80;7.75;;;28.50;99.00;;;;;;5073190;28;20020;-69
2022/09/07 11:55:14;;;;;;;13.02;8.77;;;28.50;99.10;;;;;;5061269;28;20025;-69
2022/09/07 11:57:51;;;;;;;12.82;8.35;;;28.30;99.00;;;;;;5072199;28;20032;-69
2022/09/07 12:00:36;;;;;;;16.38;7.82;;;28.30;99.30;;;;;;5055204;28;20032;-70
2022/09/07 12:03:20;;;;;;;11.52;7.72;;;28.30;95.80;;;;;;5072409;28;20048;-70
2022/09/07 12:06:24;;;;;;;14.30;8.25;;;28.40;95.60;;;;;;5072914;28;20094;-69
2022/09/07 12:09:11;;;;;;;11.63;8.07;;;28.50;96.60;;;;;;4991013;28;20133;-69
2022/09/07 12:11:39;;;;;;;10.52;7.93;;;28.60;97.20;;;;;;4990995;28;20061;-68
2022/09/07 12:14:27;;;;;;;11.55;7.55;;;28.60;95.80;;;;;;4990412;28;20043;-65
2022/09/07 12:17:10;;;;;;;10.57;7.93;;;28.60;94.80;;;;;;4991237;28;20041;-63
2022/09/07 12:19:36;;;;;;;13.40;8.85;;;28.60;96.30;;;;;;4990941;28;20050;-64
2022/09/07 12:22:02;;;;;;;11.70;8.38;;;28.70;96.30;;;;;;4990918;28;20077;-67
2022/09/07 12:24:50;;;;;;;13.55;8.38;;;28.80;95.70;;;;;;4990185;28;20096;-64
2022/09/07 12:27:19;;;;;;;13.00;8.65;;;28.90;97.10;;;;;;4990718;28;20133;-66
2022/09/07 12:29:47;;;;;;;15.32;7.75;;;28.90;96.80;;;;;;4991095;28;20034;-66
2022/09/07 12:32:45;;;;;;;11.93;7.82;;;28.90;96.20;;;;;;4990825;28;20046;-69
2022/09/07 12:35:32;;;;;;;13.35;7.70;;;28.90;96.50;;;;;;4990862;28;20038;-67
2022/09/07 12:38:00;;;;;;;11.77;8.02;;;29.00;95.70;;;;;;4990494;28;20037;-67
2022/09/07 12:40:32;;;;;;;12.27;7.78;;;29.00;99.30;;;;;;4991159;28;20033;-68
2022/09/07 12:43:12;;;;;;;13.10;7.80;;;29.10;99.90;;;;;;4990663;28;20060;-67
2022/09/07 12:45:38;;;;;;;12.32;7.57;;;29.10;98.50;;;;;;5032095;28;20060;-68
2022/09/07 12:48:16;;;;;;;11.43;7.68;;;29.00;97.50;;;;;;5071842;28;20013;-68
2022/09/07 12:51:05;;;;;;;15.15;7.25;;;29.00;98.70;;;;;;5071860;28;20116;-68
2022/09/07 12:54:06;;;;;;;11.00;6.90;;;29.00;98.00;;;;;;4989397;28;20610;-68
2022/09/07 12:56:51;;;;;;;11.80;7.20;;;28.90;95.80;;;;;;4990414;28;20069;-68